Time;durP1;ratioP1;P1;durP2;ratioP2;P2;SDS_P1;SDS_P2;PMS_P1;PMS_P2;Temp;Humidity;BMP_temperature;BMP_pressure;BME280_temperature;BME280_humidity;BME280_pressure;Samples;Min_cycle;Max_cycle;Signal;HPM_P1;HPM_P2
2021/08/31 00:01:42;;;;;;;15.70;13.30;;;;;;;15.86;87.62;99707.10;95242;1180;81122;-59
2021/08/31 00:03:50;;;;;;;20.10;14.50;;;;;;;15.80;87.68;99708.13;95273;1180;80572;-60
2021/08/31 00:05:57;;;;;;;16.10;13.60;;;;;;;15.81;87.65;99707.98;95266;1180;98071;-63
2021/08/31 00:08:06;;;;;;;15.90;13.20;;;;;;;15.80;87.72;99709.76;95215;1180;86944;-64
2021/08/31 00:10:15;;;;;;;16.90;13.50;;;;;;;15.83;87.69;99707.04;95253;1180;93546;-65
2021/08/31 00:12:23;;;;;;;15.20;13.40;;;;;;;15.76;87.80;99711.52;95272;1180;77563;-62
2021/08/31 00:14:30;;;;;;;16.70;14.10;;;;;;;15.68;87.84;99710.64;95217;1180;82472;-63
2021/08/31 00:16:38;;;;;;;19.60;16.10;;;;;;;15.71;87.86;99706.65;95187;1180;99422;-62
2021/08/31 00:18:46;;;;;;;18.80;16.80;;;;;;;15.75;87.82;99707.19;95236;1180;86585;-63
2021/08/31 00:21:00;;;;;;;20.40;16.20;;;;;;;15.77;87.79;99708.31;95289;1180;94709;-61
2021/08/31 00:23:08;;;;;;;18.50;15.80;;;;;;;15.78;87.85;99708.90;95170;1180;81561;-64
2021/08/31 00:25:17;;;;;;;21.50;16.70;;;;;;;15.72;87.91;99706.02;95207;1180;80424;-63
2021/08/31 00:27:24;;;;;;;19.80;15.50;;;;;;;15.74;87.95;99709.39;95215;1180;97230;-63
2021/08/31 00:29:32;;;;;;;19.30;15.20;;;;;;;15.71;87.98;99710.41;95269;1180;86830;-65
2021/08/31 00:31:40;;;;;;;19.30;15.90;;;;;;;15.68;87.95;99710.47;95272;1180;94473;-59
2021/08/31 00:33:47;;;;;;;21.30;17.70;;;;;;;15.68;87.94;99709.88;95221;1180;80896;-58
2021/08/31 00:35:57;;;;;;;27.70;21.10;;;;;;;15.69;87.90;99708.09;95281;1180;81966;-62
2021/08/31 00:38:05;;;;;;;34.00;29.20;;;;;;;15.65;88.00;99707.45;95271;1180;99691;-59
2021/08/31 00:40:15;;;;;;;35.70;31.10;;;;;;;15.65;87.99;99705.23;95273;1180;87568;-59
2021/08/31 00:42:22;;;;;;;40.70;34.20;;;;;;;15.71;87.92;99703.34;95266;1180;93003;-63
2021/08/31 00:44:31;;;;;;;48.10;41.00;;;;;;;15.70;87.86;99702.72;95234;1180;80141;-64
2021/08/31 00:46:39;;;;;;;44.20;39.40;;;;;;;15.67;87.97;99698.17;95282;1180;81127;-59
2021/08/31 00:48:47;;;;;;;53.40;47.50;;;;;;;15.63;88.02;99695.45;95220;1180;98036;-59
2021/08/31 00:50:56;;;;;;;54.50;48.50;;;;;;;15.59;88.08;99695.28;95278;1180;86985;-60
2021/08/31 00:53:04;;;;;;;55.40;49.50;;;;;;;15.60;88.09;99691.19;95206;1180;94484;-60
2021/08/31 00:55:14;;;;;;;58.60;49.80;;;;;;;15.64;88.03;99690.32;95271;1180;79840;-60
2021/08/31 00:57:22;;;;;;;54.40;47.90;;;;;;;15.61;88.10;99692.05;95233;1180;82202;-64
2021/08/31 00:59:30;;;;;;;52.20;45.50;;;;;;;15.64;88.08;99688.92;95241;1180;98871;-63
2021/08/31 01:01:37;;;;;;;54.90;43.80;;;;;;;15.68;88.09;99691.67;95259;1180;87280;-57
2021/08/31 01:03:46;;;;;;;55.30;46.60;;;;;;;15.72;88.03;99684.73;95286;1180;94470;-59
2021/08/31 01:05:57;;;;;;;49.50;42.60;;;;;;;15.74;88.02;99683.16;95222;1180;81496;-60
2021/08/31 01:08:06;;;;;;;46.50;39.90;;;;;;;15.75;87.93;99686.45;95208;1180;81902;-62
2021/08/31 01:10:15;;;;;;;51.70;44.30;;;;;;;15.71;87.91;99683.80;95211;1180;98550;-63
2021/08/31 01:12:23;;;;;;;55.90;49.20;;;;;;;15.67;87.95;99685.18;95224;1180;87119;-59
2021/08/31 01:14:32;;;;;;;61.20;51.80;;;;;;;15.65;87.98;99687.63;95264;1180;92794;-58
2021/08/31 01:16:43;;;;;;;52.50;45.00;;;;;;;15.63;87.99;99688.20;95275;1180;80514;-59
2021/08/31 01:18:50;;;;;;;52.00;46.20;;;;;;;15.57;88.11;99685.81;95247;1180;82115;-59
2021/08/31 01:21:00;;;;;;;37.50;33.10;;;;;;;15.56;88.11;99688.54;95262;1180;99254;-58
2021/08/31 01:23:08;;;;;;;32.30;27.10;;;;;;;15.58;88.10;99684.91;95207;1180;87768;-60
2021/08/31 01:25:15;;;;;;;31.10;26.20;;;;;;;15.57;88.18;99691.33;95210;1180;93139;-60
2021/08/31 01:27:23;;;;;;;27.80;24.60;;;;;;;15.59;88.30;99690.55;95200;1180;81081;-58
2021/08/31 01:29:33;;;;;;;24.90;22.30;;;;;;;15.60;88.31;99689.71;95210;1180;81437;-60
2021/08/31 01:31:40;;;;;;;23.80;19.70;;;;;;;15.67;88.25;99689.97;95284;1180;98197;-65
2021/08/31 01:33:48;;;;;;;21.60;18.60;;;;;;;15.68;88.24;99686.17;95269;1180;87689;-64
2021/08/31 01:35:56;;;;;;;24.40;21.60;;;;;;;15.75;88.19;99689.09;95267;1180;93426;-61
2021/08/31 01:38:04;;;;;;;24.20;21.50;;;;;;;15.74;88.15;99688.44;95249;1180;78458;-65
2021/08/31 01:40:15;;;;;;;22.30;19.40;;;;;;;15.76;88.14;99689.83;95275;1180;81202;-63
2021/08/31 01:42:24;;;;;;;19.90;17.00;;;;;;;15.79;88.02;99695.28;95186;1180;99605;-63
2021/08/31 01:44:32;;;;;;;18.00;14.60;;;;;;;15.78;87.98;99694.06;95252;1180;88233;-64
2021/08/31 01:46:43;;;;;;;16.30;14.60;;;;;;;15.79;87.90;99694.07;95223;1180;95047;-59
2021/08/31 01:48:53;;;;;;;14.40;12.90;;;;;;;15.82;87.93;99693.95;95257;1181;79631;-59
2021/08/31 01:51:01;;;;;;;14.40;12.70;;;;;;;15.79;87.89;99694.54;95236;1180;80994;-60
2021/08/31 01:53:09;;;;;;;14.10;12.30;;;;;;;15.74;87.93;99695.79;95324;1180;96961;-58
2021/08/31 01:55:17;;;;;;;16.30;12.30;;;;;;;15.73;87.88;99692.55;95300;1180;89236;-59
2021/08/31 01:57:24;;;;;;;15.40;11.20;;;;;;;15.73;87.77;99690.23;95291;1180;93951;-64
2021/08/31 01:59:32;;;;;;;13.20;10.40;;;;;;;15.71;87.70;99686.58;95341;1180;80291;-64
2021/08/31 02:01:42;;;;;;;11.70;10.20;;;;;;;15.65;87.74;99687.08;95301;1180;82009;-60
2021/08/31 02:03:49;;;;;;;12.20;11.00;;;;;;;15.64;87.73;99685.70;95294;1180;98975;-60
2021/08/31 02:05:57;;;;;;;14.90;10.90;;;;;;;15.62;87.77;99678.76;95331;1180;89338;-60
2021/08/31 02:08:05;;;;;;;11.40;10.20;;;;;;;15.57;87.76;99682.58;95298;1180;93552;-59
2021/08/31 02:10:15;;;;;;;13.10;11.10;;;;;;;15.59;87.72;99680.70;95349;1180;81111;-59
2021/08/31 02:12:26;;;;;;;11.90;10.60;;;;;;;15.58;87.69;99679.54;95376;1180;80866;-60
2021/08/31 02:14:34;;;;;;;16.50;11.00;;;;;;;15.61;87.68;99679.20;95353;1180;98716;-60
2021/08/31 02:16:42;;;;;;;12.00;10.70;;;;;;;15.63;87.59;99681.21;95304;1180;87901;-62
2021/08/31 02:18:49;;;;;;;12.20;9.90;;;;;;;15.61;87.62;99679.05;95335;1180;92747;-62
2021/08/31 02:20:57;;;;;;;11.10;9.90;;;;;;;15.53;87.71;99682.78;95344;1180;78011;-60
2021/08/31 02:23:05;;;;;;;12.00;10.80;;;;;;;15.54;87.64;99681.72;95273;1180;82202;-59
2021/08/31 02:25:13;;;;;;;12.30;10.70;;;;;;;15.49;87.52;99678.31;95345;1180;98858;-59
2021/08/31 02:27:21;;;;;;;12.50;11.20;;;;;;;15.54;87.66;99682.05;95326;1180;86972;-59
2021/08/31 02:29:28;;;;;;;13.00;11.70;;;;;;;15.54;87.72;99679.21;95326;1180;94200;-59
2021/08/31 02:31:36;;;;;;;11.90;10.20;;;;;;;15.57;87.66;99681.31;95311;1180;78445;-59
2021/08/31 02:33:44;;;;;;;13.20;10.80;;;;;;;15.58;87.60;99675.44;95359;1180;81356;-60
2021/08/31 02:35:52;;;;;;;12.10;10.00;;;;;;;15.55;87.57;99675.00;95349;1180;98352;-60
2021/08/31 02:37:59;;;;;;;10.40;9.30;;;;;;;15.51;87.50;99680.48;95363;1180;88161;-60
2021/08/31 02:40:09;;;;;;;12.10;10.80;;;;;;;15.47;87.57;99679.00;95237;1180;94785;-60
2021/08/31 02:42:17;;;;;;;11.40;10.20;;;;;;;15.49;87.46;99680.10;95347;1180;79999;-59
2021/08/31 02:44:27;;;;;;;10.70;9.60;;;;;;;15.46;87.47;99685.89;95325;1180;81521;-59
2021/08/31 02:46:38;;;;;;;10.90;9.70;;;;;;;15.42;87.43;99680.20;95347;1180;97793;-59
2021/08/31 02:48:46;;;;;;;11.30;10.20;;;;;;;15.41;87.32;99681.84;95313;1180;85773;-59
2021/08/31 02:50:56;;;;;;;11.60;9.80;;;;;;;15.42;87.36;99677.56;95333;1180;94217;-61
2021/08/31 02:53:03;;;;;;;11.80;10.50;;;;;;;15.43;87.29;99668.45;95300;1180;80861;-63
2021/08/31 02:55:15;;;;;;;12.80;10.70;;;;;;;15.41;87.30;99670.89;95338;1180;81099;-62
2021/08/31 02:57:23;;;;;;;12.50;10.80;;;;;;;15.38;87.39;99671.60;95334;1180;98657;-60
2021/08/31 02:59:31;;;;;;;12.90;11.40;;;;;;;15.32;87.46;99671.08;95325;1180;88232;-60
2021/08/31 03:04:04;;;;;;;14.40;11.30;;;;;;;15.32;87.35;99669.45;95316;1180;81166;-58
2021/08/31 03:06:12;;;;;;;11.80;10.50;;;;;;;15.29;87.32;99666.50;95336;1180;82126;-59
2021/08/31 03:08:19;;;;;;;12.40;10.90;;;;;;;15.30;87.34;99664.33;95313;1180;98185;-59
2021/08/31 03:10:30;;;;;;;13.80;10.40;;;;;;;15.33;87.30;99666.46;95276;1180;87208;-58
2021/08/31 03:12:40;;;;;;;13.50;11.70;;;;;;;15.31;87.32;99667.04;95299;1180;94049;-63
2021/08/31 03:14:48;;;;;;;14.60;11.60;;;;;;;15.25;87.41;99665.65;95255;1180;79067;-63
2021/08/31 03:16:56;;;;;;;15.00;13.00;;;;;;;15.23;87.41;99663.80;95266;1180;80873;-59
2021/08/31 03:19:03;;;;;;;14.80;11.70;;;;;;;15.25;87.38;99660.74;95265;1180;99039;-59
2021/08/31 03:21:14;;;;;;;13.20;11.80;;;;;;;15.18;87.42;99661.55;95239;1180;87103;-63
2021/08/31 03:23:21;;;;;;;12.50;11.20;;;;;;;15.18;87.48;99662.09;95217;1180;93942;-64
2021/08/31 03:25:29;;;;;;;14.10;12.40;;;;;;;15.20;87.55;99658.38;95246;1179;82178;-64
2021/08/31 03:27:37;;;;;;;13.20;11.70;;;;;;;15.22;87.59;99658.67;95237;1180;80675;-59
2021/08/31 03:29:44;;;;;;;13.40;11.80;;;;;;;15.27;87.63;99653.98;95302;1180;99137;-59
2021/08/31 03:31:52;;;;;;;12.90;11.40;;;;;;;15.27;87.60;99653.44;95272;1180;87389;-64
2021/08/31 03:33:59;;;;;;;14.70;12.50;;;;;;;15.22;87.58;99651.64;95280;1180;94844;-64
2021/08/31 03:36:08;;;;;;;14.20;12.40;;;;;;;15.22;87.45;99650.39;95264;1180;79760;-59
2021/08/31 03:38:18;;;;;;;13.90;11.10;;;;;;;15.25;87.48;99650.29;95317;1180;81339;-59
2021/08/31 03:40:29;;;;;;;13.90;11.20;;;;;;;15.27;87.44;99648.59;95348;1180;97488;-58
2021/08/31 03:42:36;;;;;;;12.30;10.90;;;;;;;15.24;87.39;99648.95;95294;1180;87986;-63
2021/08/31 03:44:44;;;;;;;15.80;12.60;;;;;;;15.23;87.40;99654.80;95325;1180;94326;-62
2021/08/31 03:46:51;;;;;;;15.00;11.20;;;;;;;15.22;87.44;99661.69;95278;1180;80906;-63
2021/08/31 03:48:59;;;;;;;13.00;10.70;;;;;;;15.12;87.41;99660.98;95336;1180;81501;-65
2021/08/31 03:51:07;;;;;;;12.80;11.20;;;;;;;15.03;87.48;99668.86;95298;1180;98393;-63
2021/08/31 03:53:14;;;;;;;12.40;10.30;;;;;;;15.05;87.48;99673.38;95325;1180;88427;-64
2021/08/31 03:55:22;;;;;;;12.30;10.90;;;;;;;15.05;87.48;99673.02;95304;1180;94591;-65
2021/08/31 03:57:32;;;;;;;15.50;11.80;;;;;;;15.04;87.43;99675.54;95313;1180;80147;-58
2021/08/31 03:59:43;;;;;;;13.70;11.00;;;;;;;15.01;87.47;99681.73;95334;1180;82390;-59
2021/08/31 04:01:50;;;;;;;16.00;11.10;;;;;;;14.99;87.41;99682.60;95263;1180;98351;-64
2021/08/31 04:03:58;;;;;;;12.90;10.30;;;;;;;14.97;87.40;99690.17;95313;1180;87895;-63
2021/08/31 04:06:05;;;;;;;12.90;10.10;;;;;;;15.00;87.43;99694.09;95317;1180;92993;-62
2021/08/31 04:08:13;;;;;;;12.60;9.80;;;;;;;14.99;87.53;99699.89;95286;1180;81259;-63
2021/08/31 04:10:21;;;;;;;12.00;10.00;;;;;;;14.99;87.51;99698.54;95335;1180;82003;-63
2021/08/31 04:12:29;;;;;;;11.90;10.60;;;;;;;14.93;87.53;99700.45;95353;1180;98354;-64
2021/08/31 04:14:37;;;;;;;11.80;8.80;;;;;;;14.93;87.59;99699.48;95323;1180;86659;-64
2021/08/31 04:16:44;;;;;;;12.20;10.90;;;;;;;14.86;87.45;99701.09;95280;1180;94438;-60
2021/08/31 04:18:52;;;;;;;11.20;9.70;;;;;;;14.88;87.37;99703.91;95307;1180;81680;-60
2021/08/31 04:21:02;;;;;;;12.40;10.50;;;;;;;14.91;87.31;99709.69;95334;1180;82860;-58
2021/08/31 04:23:10;;;;;;;13.20;9.90;;;;;;;14.88;87.30;99709.53;95291;1180;97506;-59
2021/08/31 04:25:18;;;;;;;13.20;11.40;;;;;;;14.91;87.32;99710.61;95352;1180;88830;-61
2021/08/31 04:27:25;;;;;;;12.20;11.00;;;;;;;14.93;87.30;99711.62;95322;1180;94021;-59
2021/08/31 04:29:33;;;;;;;13.20;11.00;;;;;;;14.97;87.30;99713.45;95330;1180;81607;-60
2021/08/31 04:31:43;;;;;;;10.60;9.50;;;;;;;14.92;87.29;99713.98;95317;1180;82135;-63
2021/08/31 04:33:51;;;;;;;12.10;10.30;;;;;;;14.82;87.38;99716.11;95326;1180;97991;-63
2021/08/31 04:36:01;;;;;;;11.70;10.50;;;;;;;14.84;87.27;99713.33;95330;1180;87364;-61
2021/08/31 04:38:09;;;;;;;12.20;10.80;;;;;;;14.92;87.28;99713.84;95286;1180;93858;-63
2021/08/31 04:40:17;;;;;;;13.20;11.50;;;;;;;14.98;87.28;99714.59;95327;1180;79914;-64
2021/08/31 04:42:28;;;;;;;13.60;12.00;;;;;;;15.04;87.18;99714.38;95316;1180;80728;-63
2021/08/31 04:44:36;;;;;;;12.00;10.60;;;;;;;15.08;87.13;99709.27;95385;1180;98515;-63
2021/08/31 04:46:44;;;;;;;12.40;11.10;;;;;;;15.10;86.92;99707.19;95375;1180;86879;-62
2021/08/31 04:48:51;;;;;;;14.00;11.20;;;;;;;15.10;86.91;99708.11;95380;1180;94139;-64
2021/08/31 04:50:59;;;;;;;14.00;10.30;;;;;;;15.06;86.84;99706.59;95399;1180;78208;-60
2021/08/31 04:53:09;;;;;;;12.70;11.40;;;;;;;15.02;86.81;99707.16;95347;1180;81726;-60
2021/08/31 04:55:19;;;;;;;11.90;10.40;;;;;;;15.07;86.83;99701.89;95412;1180;98808;-58
2021/08/31 04:57:27;;;;;;;12.50;11.20;;;;;;;15.15;86.79;99702.41;95379;1180;86852;-64
2021/08/31 04:59:34;;;;;;;12.10;10.40;;;;;;;15.26;86.89;99698.03;95402;1180;93355;-62
2021/08/31 05:01:42;;;;;;;12.20;11.00;;;;;;;15.32;86.78;99695.36;95347;1180;79271;-59
2021/08/31 05:03:52;;;;;;;14.40;11.30;;;;;;;15.36;86.70;99696.09;95370;1180;81115;-59
2021/08/31 05:06:00;;;;;;;14.40;12.10;;;;;;;15.34;86.63;99695.13;95413;1180;97687;-61
2021/08/31 05:08:09;;;;;;;14.20;11.90;;;;;;;15.45;86.66;99694.02;95332;1180;88331;-63
2021/08/31 05:10:20;;;;;;;12.30;10.70;;;;;;;15.65;86.74;99699.68;95366;1180;94269;-63
2021/08/31 05:12:27;;;;;;;13.30;11.80;;;;;;;15.81;86.53;99701.29;95283;1180;79736;-62
2021/08/31 05:14:35;;;;;;;13.80;12.10;;;;;;;15.93;86.39;99703.42;95354;1180;79706;-64
2021/08/31 05:16:43;;;;;;;14.00;12.60;;;;;;;16.07;86.20;99705.13;95372;1180;100086;-63
2021/08/31 05:18:51;;;;;;;13.20;11.60;;;;;;;16.17;86.19;99705.33;95346;1180;87748;-62
2021/08/31 05:20:58;;;;;;;12.60;10.90;;;;;;;16.32;85.94;99704.98;95363;1180;94207;-61
2021/08/31 05:23:07;;;;;;;14.20;12.20;;;;;;;16.29;85.68;99702.79;95353;1180;78396;-61
2021/08/31 05:25:15;;;;;;;12.10;10.90;;;;;;;16.24;85.50;99707.98;95383;1180;81296;-62
2021/08/31 05:27:23;;;;;;;11.60;10.40;;;;;;;16.15;85.28;99706.61;95340;1180;99317;-63
2021/08/31 05:29:31;;;;;;;12.60;11.00;;;;;;;16.06;85.32;99701.13;95373;1180;88374;-62
2021/08/31 05:31:38;;;;;;;10.90;9.80;;;;;;;16.01;85.23;99703.96;95331;1180;94682;-59
2021/08/31 05:33:46;;;;;;;11.30;10.10;;;;;;;15.96;85.25;99702.29;95330;1180;80700;-59
2021/08/31 05:36:01;;;;;;;12.10;10.80;;;;;;;15.99;85.28;99705.56;95355;1180;81204;-60
2021/08/31 05:38:09;;;;;;;14.00;10.70;;;;;;;16.00;85.24;99704.05;95299;1180;99713;-63
2021/08/31 05:40:20;;;;;;;14.60;10.60;;;;;;;16.00;85.11;99705.91;95356;1180;87383;-64
2021/08/31 05:42:27;;;;;;;13.20;10.50;;;;;;;16.05;85.00;99702.64;95329;1180;95134;-63
2021/08/31 05:44:40;;;;;;;11.80;10.60;;;;;;;16.15;84.77;99696.68;95335;1180;79712;-63
2021/08/31 05:46:47;;;;;;;11.40;9.90;;;;;;;16.17;84.60;99687.84;95284;1180;82843;-63
2021/08/31 05:48:55;;;;;;;11.50;10.30;;;;;;;16.25;84.73;99684.93;95297;1180;97858;-63
2021/08/31 05:51:03;;;;;;;11.70;10.40;;;;;;;16.41;84.61;99685.52;95179;1180;88460;-58
2021/08/31 05:53:10;;;;;;;11.40;10.20;;;;;;;16.77;84.62;99682.66;95269;1180;94619;-58
2021/08/31 05:55:18;;;;;;;11.10;9.90;;;;;;;17.15;84.22;99682.35;95248;1180;80087;-59
2021/08/31 05:57:25;;;;;;;10.90;9.80;;;;;;;17.35;84.05;99686.47;95305;1180;82075;-59
2021/08/31 05:59:38;;;;;;;10.50;9.30;;;;;;;18.75;84.27;99684.86;95273;1179;99012;-59
2021/08/31 06:01:46;;;;;;;11.60;10.40;;;;;;;19.50;82.43;99691.08;95327;1180;88624;-63
2021/08/31 06:03:54;;;;;;;11.10;9.90;;;;;;;19.23;81.25;99689.98;95292;1180;93800;-63
2021/08/31 06:06:04;;;;;;;12.80;10.20;;;;;;;18.77;81.04;99695.35;95303;1180;79068;-59
2021/08/31 06:08:12;;;;;;;11.70;10.50;;;;;;;18.28;81.07;99701.38;95331;1180;81045;-58
2021/08/31 06:10:19;;;;;;;12.00;10.50;;;;;;;17.93;81.11;99702.27;95338;1180;99425;-60
2021/08/31 06:12:27;;;;;;;11.70;10.20;;;;;;;17.64;81.11;99710.40;95291;1180;86951;-60
2021/08/31 06:14:38;;;;;;;10.90;9.70;;;;;;;17.39;81.05;99709.96;95317;1180;93093;-58
2021/08/31 06:16:45;;;;;;;13.10;10.30;;;;;;;17.12;81.22;99719.15;95310;1179;79646;-62
2021/08/31 06:18:53;;;;;;;11.20;9.90;;;;;;;17.09;81.50;99711.36;95307;1180;81918;-62
2021/08/31 06:21:00;;;;;;;9.90;8.90;;;;;;;17.10;81.64;99709.94;95346;1180;99856;-61
2021/08/31 06:23:08;;;;;;;10.50;9.40;;;;;;;17.08;81.64;99707.61;95304;1180;87423;-62
2021/08/31 06:25:15;;;;;;;10.70;9.10;;;;;;;17.08;81.70;99707.23;95282;1180;94397;-62
2021/08/31 06:27:23;;;;;;;9.90;8.80;;;;;;;17.10;81.62;99708.04;95289;1180;79670;-59
2021/08/31 06:29:31;;;;;;;9.40;8.10;;;;;;;17.14;81.70;99706.03;95317;1180;81433;-60
2021/08/31 06:31:39;;;;;;;8.70;7.80;;;;;;;17.22;81.61;99702.55;95293;1180;98494;-59
2021/08/31 06:33:46;;;;;;;9.30;7.30;;;;;;;17.29;81.21;99699.60;95311;1180;88372;-58
2021/08/31 06:35:54;;;;;;;11.40;8.60;;;;;;;17.31;81.17;99697.95;95339;1180;93509;-60
2021/08/31 06:38:02;;;;;;;8.60;7.60;;;;;;;17.57;81.30;99698.06;95233;1179;79377;-63
2021/08/31 06:40:13;;;;;;;8.70;7.80;;;;;;;17.87;81.21;99697.11;95278;1180;80424;-63
2021/08/31 06:42:23;;;;;;;9.20;8.10;;;;;;;17.88;80.92;99701.62;95324;1180;97894;-62
2021/08/31 06:44:31;;;;;;;8.60;7.70;;;;;;;18.02;80.99;99701.52;95334;1180;86956;-58
2021/08/31 06:46:39;;;;;;;8.00;7.20;;;;;;;18.20;80.86;99700.76;95290;1180;93094;-63
2021/08/31 06:48:47;;;;;;;8.10;7.30;;;;;;;18.24;80.61;99701.35;95310;1180;79636;-62
2021/08/31 06:50:55;;;;;;;9.10;8.20;;;;;;;18.16;80.03;99705.56;95360;1180;81685;-61
2021/08/31 06:53:03;;;;;;;9.00;8.10;;;;;;;17.95;79.89;99706.84;95223;1180;99348;-58
2021/08/31 06:55:13;;;;;;;8.80;7.90;;;;;;;17.87;79.97;99703.99;95299;1180;87933;-58
2021/08/31 06:57:21;;;;;;;9.00;8.10;;;;;;;17.68;79.31;99705.66;95247;1180;93898;-58
2021/08/31 06:59:29;;;;;;;9.50;8.20;;;;;;;17.54;79.75;99709.00;95265;1180;78451;-58
2021/08/31 07:01:37;;;;;;;11.90;8.50;;;;;;;17.35;79.80;99713.89;95256;1180;81979;-60
2021/08/31 07:03:44;;;;;;;14.40;12.40;;;;;;;17.24;79.73;99715.11;95162;1180;99542;-59
2021/08/31 07:06:01;;;;;;;10.50;9.10;;;;;;;17.22;80.00;99713.35;95217;1180;87861;-60
2021/08/31 07:08:09;;;;;;;8.60;6.90;;;;;;;17.32;80.14;99709.80;95236;1180;95035;-59
2021/08/31 07:10:17;;;;;;;8.80;7.90;;;;;;;17.42;80.17;99705.91;95271;1180;79771;-59
2021/08/31 07:12:27;;;;;;;9.80;8.30;;;;;;;17.54;79.91;99707.02;95278;1180;81281;-63
2021/08/31 07:14:35;;;;;;;8.80;7.90;;;;;;;17.70;80.11;99703.13;95238;1180;98431;-64
2021/08/31 07:16:42;;;;;;;7.60;6.80;;;;;;;17.88;79.88;99703.59;95240;1180;88170;-62
2021/08/31 07:18:49;;;;;;;8.80;7.40;;;;;;;17.99;79.56;99704.20;95259;1180;93939;-63
2021/08/31 07:20:57;;;;;;;8.10;7.00;;;;;;;18.19;79.63;99705.34;95277;1180;79139;-62
2021/08/31 07:23:06;;;;;;;8.20;6.40;;;;;;;18.35;79.15;99706.34;95287;1180;81512;-62
2021/08/31 07:25:16;;;;;;;7.30;6.70;;;;;;;18.33;78.52;99713.86;95257;1180;97493;-62
2021/08/31 07:27:24;;;;;;;7.40;6.10;;;;;;;18.22;77.98;99722.20;95252;1180;87539;-59
2021/08/31 07:29:35;;;;;;;8.20;7.10;;;;;;;17.99;78.08;99722.67;95231;1180;93311;-56
2021/08/31 07:31:43;;;;;;;7.50;6.50;;;;;;;17.85;77.97;99722.01;95217;1180;78337;-63
2021/08/31 07:33:51;;;;;;;7.50;6.70;;;;;;;17.70;78.20;99724.27;95260;1180;81812;-61
2021/08/31 07:35:59;;;;;;;9.80;7.10;;;;;;;17.60;78.19;99723.15;95274;1180;97262;-59
2021/08/31 07:38:07;;;;;;;8.90;7.60;;;;;;;17.65;78.45;99730.53;95303;1180;87247;-59
2021/08/31 07:40:17;;;;;;;8.50;7.50;;;;;;;17.75;78.52;99730.88;95269;1180;94090;-60
2021/08/31 07:42:24;;;;;;;9.20;7.40;;;;;;;17.92;78.12;99727.61;95310;1180;80270;-66
2021/08/31 07:44:32;;;;;;;10.20;7.70;;;;;;;18.00;78.23;99722.42;95218;1180;81352;-63
2021/08/31 07:46:46;;;;;;;9.40;6.70;;;;;;;18.04;77.99;99720.95;95218;1180;99497;-63
2021/08/31 07:48:52;;;;;;;;;;;;;;;17.92;77.95;99724.51;95228;1180;86870;-64
2021/08/31 07:50:59;;;;;;;8.60;7.50;;;;;;;17.97;77.76;99722.77;95239;1180;94732;-64
2021/08/31 07:53:07;;;;;;;13.90;9.30;;;;;;;17.97;77.81;99724.91;95230;1180;78592;-64
2021/08/31 07:55:20;;;;;;;9.30;8.30;;;;;;;17.93;77.54;99728.51;95261;1180;80793;-64
2021/08/31 07:57:29;;;;;;;11.00;8.90;;;;;;;17.84;77.48;99728.50;95251;1180;97802;-59
2021/08/31 07:59:36;;;;;;;15.50;10.30;;;;;;;17.84;77.37;99726.47;95247;1180;87551;-61
2021/08/31 08:01:44;;;;;;;12.50;8.90;;;;;;;17.97;77.53;99725.71;95214;1180;93341;-65
2021/08/31 08:03:52;;;;;;;9.70;8.30;;;;;;;18.14;77.45;99731.30;95269;1180;81416;-65
2021/08/31 08:05:59;;;;;;;10.20;8.30;;;;;;;18.25;77.35;99731.48;95277;1180;81634;-65
2021/08/31 08:08:07;;;;;;;8.20;7.40;;;;;;;18.38;77.15;99733.92;95190;1180;97261;-65
2021/08/31 08:10:16;;;;;;;9.50;8.50;;;;;;;18.35;77.26;99727.12;95291;1180;86849;-66
2021/08/31 08:12:24;;;;;;;8.90;7.60;;;;;;;18.47;77.17;99729.29;95237;1180;94487;-58
2021/08/31 08:14:32;;;;;;;10.10;8.40;;;;;;;18.81;77.14;99729.89;95216;1180;79889;-59
2021/08/31 08:16:39;;;;;;;9.30;6.50;;;;;;;19.14;76.88;99729.85;95200;1180;79932;-65
2021/08/31 08:18:47;;;;;;;7.40;6.60;;;;;;;19.20;76.33;99728.03;95231;1180;98086;-64
2021/08/31 08:20:55;;;;;;;7.70;7.00;;;;;;;19.26;76.27;99727.96;95249;1180;88687;-61
2021/08/31 08:23:06;;;;;;;8.10;7.20;;;;;;;19.82;76.38;99729.03;95223;1180;94336;-59
2021/08/31 08:25:16;;;;;;;9.10;6.50;;;;;;;20.22;75.26;99729.45;95207;1180;78836;-59
2021/08/31 08:27:23;;;;;;;6.40;5.90;;;;;;;20.41;74.03;99730.59;95248;1180;81799;-59
2021/08/31 08:29:31;;;;;;;9.20;6.30;;;;;;;20.27;73.41;99727.17;95221;1180;98972;-60
2021/08/31 08:31:44;;;;;;;6.30;5.30;;;;;;;20.18;73.08;99722.83;95230;1180;85860;-61
2021/08/31 08:33:52;;;;;;;7.30;5.50;;;;;;;19.84;72.87;99720.17;95235;1180;94358;-59
2021/08/31 08:36:00;;;;;;;5.50;4.90;;;;;;;19.62;72.41;99710.99;95281;1180;79865;-60
2021/08/31 08:38:07;;;;;;;6.80;5.40;;;;;;;19.45;72.86;99708.73;95260;1180;79987;-59
2021/08/31 08:40:15;;;;;;;7.40;6.00;;;;;;;19.29;72.84;99704.61;95282;1180;98639;-60
2021/08/31 08:42:23;;;;;;;6.10;5.50;;;;;;;19.35;72.97;99707.07;95234;1180;88066;-60
2021/08/31 08:44:32;;;;;;;7.80;5.90;;;;;;;19.41;72.54;99701.77;95232;1180;93958;-60
2021/08/31 08:46:41;;;;;;;6.30;5.70;;;;;;;19.44;72.64;99698.55;95240;1180;80411;-60
2021/08/31 08:48:49;;;;;;;8.10;5.20;;;;;;;19.65;72.80;99698.13;95219;1180;81382;-60
2021/08/31 08:51:00;;;;;;;9.10;5.60;;;;;;;19.85;72.34;99693.80;95218;1180;97513;-62
2021/08/31 08:53:07;;;;;;;8.00;5.70;;;;;;;19.94;71.90;99689.62;95250;1180;87528;-64
2021/08/31 08:55:16;;;;;;;9.60;6.10;;;;;;;19.96;71.81;99688.48;95264;1180;93623;-61
2021/08/31 08:57:30;;;;;;;8.70;6.70;;;;;;;20.05;71.51;99692.52;95261;1180;79755;-60
2021/08/31 08:59:41;;;;;;;15.70;7.80;;;;;;;20.12;71.38;99693.64;95290;1180;81699;-70
2021/08/31 09:01:52;;;;;;;10.60;7.10;;;;;;;20.60;71.77;99697.75;95266;1180;99064;-70
2021/08/31 09:04:02;;;;;;;6.50;4.90;;;;;;;21.04;71.73;99703.95;95232;1180;86951;-69
2021/08/31 09:06:14;;;;;;;3.40;3.00;;;;;;;21.53;70.74;99710.05;95232;1180;93716;-69
2021/08/31 09:08:24;;;;;;;6.70;4.60;;;;;;;21.85;69.89;99708.65;95269;1180;77661;-68
2021/08/31 09:10:37;;;;;;;4.90;4.40;;;;;;;21.98;69.19;99711.11;95341;1180;82246;-69
2021/08/31 09:12:49;;;;;;;4.80;4.40;;;;;;;21.76;68.56;99714.27;95299;1180;98944;-68
2021/08/31 09:15:17;;;;;;;7.00;5.00;;;;;;;21.63;68.25;99723.55;95317;1180;86699;-67
2021/08/31 09:17:26;;;;;;;5.70;4.40;;;;;;;21.29;67.38;99724.46;95291;1180;93961;-69
2021/08/31 09:19:37;;;;;;;5.10;4.60;;;;;;;21.08;68.14;99730.69;95294;1180;79072;-69
2021/08/31 09:21:47;;;;;;;5.60;4.00;;;;;;;21.38;68.72;99730.45;95340;1180;82114;-71
2021/08/31 09:23:58;;;;;;;4.20;3.80;;;;;;;21.52;68.40;99729.89;95329;1180;97696;-71
2021/08/31 09:26:12;;;;;;;5.60;4.20;;;;;;;21.32;67.67;99732.71;95359;1180;86618;-67
2021/08/31 09:28:27;;;;;;;4.50;4.10;;;;;;;21.07;67.72;99735.17;95293;1180;94275;-68
2021/08/31 09:30:34;;;;;;;5.10;4.60;;;;;;;21.02;67.79;99733.06;95279;1180;78329;-68
2021/08/31 09:33:03;;;;;;;5.00;4.40;;;;;;;21.04;67.19;99729.35;95247;1180;81087;-70
2021/08/31 09:35:18;;;;;;;3.90;3.60;;;;;;;20.85;67.33;99735.23;95332;1180;97618;-72
2021/08/31 09:37:36;;;;;;;4.10;3.70;;;;;;;20.86;67.63;99734.64;95321;1180;86955;-66
2021/08/31 09:39:47;;;;;;;5.20;4.70;;;;;;;20.65;67.49;99735.91;95299;1180;94040;-67
2021/08/31 09:41:55;;;;;;;3.90;3.60;;;;;;;20.60;67.66;99738.70;95252;1180;79127;-68
2021/08/31 09:44:06;;;;;;;4.30;3.90;;;;;;;20.54;67.89;99739.02;95243;1180;81349;-68
2021/08/31 09:46:14;;;;;;;4.00;3.60;;;;;;;20.42;67.63;99750.06;95344;1180;98672;-72
2021/08/31 09:48:27;;;;;;;5.60;3.40;;;;;;;20.19;67.84;99750.23;95265;1180;88314;-71
2021/08/31 09:50:39;;;;;;;4.80;4.00;;;;;;;20.01;68.04;99757.27;95348;1180;92857;-71
2021/08/31 09:53:00;;;;;;;5.70;3.90;;;;;;;19.82;68.47;99762.04;95318;1180;78963;-68
2021/08/31 09:55:20;;;;;;;5.10;3.60;;;;;;;19.74;68.89;99762.92;95302;1180;82212;-68
2021/08/31 09:57:31;;;;;;;4.70;4.20;;;;;;;19.56;68.93;99758.80;95246;1180;98365;-67
2021/08/31 09:59:39;;;;;;;4.00;3.60;;;;;;;19.57;69.23;99758.20;95375;1180;87391;-68
2021/08/31 10:01:47;;;;;;;4.00;3.60;;;;;;;19.66;69.24;99756.45;95275;1180;94925;-69